createdAt,value
2017-12-05T00:00:13.559Z,26.30
2017-12-05T00:02:41.624Z,25.77
2017-12-05T00:05:10.657Z,22.93
2017-12-05T00:07:38.946Z,24.80
2017-12-05T00:10:07.274Z,29.20
2017-12-05T00:12:36.444Z,25.50
2017-12-05T00:15:04.731Z,25.90
2017-12-05T00:17:32.989Z,25.70
2017-12-05T00:20:01.297Z,26.13
2017-12-05T00:22:29.554Z,25.37
2017-12-05T00:24:57.828Z,23.00
2017-12-05T00:27:26.123Z,24.97
2017-12-05T00:29:54.343Z,22.07
2017-12-05T00:32:22.676Z,24.20
2017-12-05T00:34:51.233Z,21.07
2017-12-05T00:37:19.569Z,19.93
2017-12-05T00:39:47.790Z,22.33
2017-12-05T00:42:16.062Z,23.07
2017-12-05T00:44:44.326Z,19.90
2017-12-05T00:47:12.605Z,20.17
2017-12-05T00:49:40.901Z,22.00
2017-12-05T00:52:09.202Z,19.27
2017-12-05T00:54:37.436Z,19.87
2017-12-05T00:57:05.682Z,20.43
2017-12-05T00:59:34.700Z,18.67
2017-12-05T01:02:02.957Z,20.77
2017-12-05T01:04:31.977Z,18.57
2017-12-05T01:07:00.279Z,20.93
2017-12-05T01:09:28.892Z,20.03
2017-12-05T01:11:57.098Z,21.30
2017-12-05T01:14:26.124Z,20.17
2017-12-05T01:16:54.378Z,22.27
2017-12-05T01:19:23.404Z,19.33
2017-12-05T01:21:51.607Z,19.13
2017-12-05T01:24:20.638Z,20.37
2017-12-05T01:26:50.250Z,21.87
2017-12-05T01:29:18.504Z,21.03
2017-12-05T01:31:47.510Z,20.07
2017-12-05T01:34:16.400Z,19.73
2017-12-05T01:36:45.400Z,20.07
2017-12-05T01:39:15.399Z,20.30
2017-12-05T01:41:43.628Z,20.40
2017-12-05T01:44:11.868Z,19.07
2017-12-05T01:46:40.899Z,18.30
2017-12-05T01:49:09.161Z,18.10
2017-12-05T01:51:37.408Z,18.87
2017-12-05T01:54:07.121Z,18.20
2017-12-05T01:56:35.360Z,18.13
2017-12-05T01:59:03.632Z,18.13
2017-12-05T02:01:32.707Z,16.90
2017-12-05T02:04:01.153Z,19.17
2017-12-05T02:06:30.161Z,16.97
2017-12-05T02:08:58.411Z,13.63
2017-12-05T02:11:27.474Z,15.67
2017-12-05T02:13:55.741Z,14.50
2017-12-05T02:16:24.033Z,14.60
2017-12-05T02:18:52.258Z,14.53
2017-12-05T02:21:21.321Z,14.83
2017-12-05T02:23:49.561Z,13.20
2017-12-05T02:26:18.666Z,13.53
2017-12-05T02:28:46.941Z,14.43
2017-12-05T02:31:15.812Z,12.87
2017-12-05T02:33:44.101Z,14.80
2017-12-05T02:36:12.340Z,15.90
2017-12-05T02:38:41.355Z,15.07
2017-12-05T02:41:10.544Z,14.67
2017-12-05T02:43:39.568Z,14.97
2017-12-05T02:46:07.807Z,13.00
2017-12-05T02:48:36.840Z,15.33
2017-12-05T02:51:05.892Z,16.13
2017-12-05T02:53:34.907Z,16.73
2017-12-05T02:56:03.185Z,14.67
2017-12-05T02:58:31.491Z,17.50
2017-12-05T03:00:59.744Z,15.43
2017-12-05T03:03:28.002Z,15.70
2017-12-05T03:05:57.016Z,14.97
2017-12-05T03:08:25.306Z,16.00
2017-12-05T03:10:53.572Z,17.40
2017-12-05T03:13:22.586Z,15.47
2017-12-05T03:15:50.833Z,14.80
2017-12-05T03:18:19.094Z,14.63
2017-12-05T03:20:48.124Z,15.90
2017-12-05T03:23:17.506Z,13.67
2017-12-05T03:25:46.722Z,16.93
2017-12-05T03:28:14.983Z,13.53
2017-12-05T03:30:44.032Z,13.30
2017-12-05T03:33:12.268Z,13.47
2017-12-05T03:35:41.304Z,14.10
2017-12-05T03:38:10.364Z,12.67
2017-12-05T03:40:38.583Z,12.57
2017-12-05T03:43:06.839Z,13.47
2017-12-05T03:45:35.092Z,13.67
2017-12-05T03:48:04.125Z,14.73
2017-12-05T03:50:32.779Z,13.50
2017-12-05T03:53:01.769Z,14.30
2017-12-05T03:55:30.043Z,15.63
2017-12-05T03:57:58.310Z,16.37
2017-12-05T04:00:26.570Z,13.93
2017-12-05T04:02:55.590Z,13.67
2017-12-05T04:05:23.823Z,13.63
2017-12-05T04:07:52.078Z,14.67
2017-12-05T04:10:21.570Z,14.73
2017-12-05T04:12:49.812Z,13.43
2017-12-05T04:15:18.821Z,13.30
2017-12-05T04:17:47.065Z,14.40
2017-12-05T04:20:15.323Z,15.33
2017-12-05T04:22:43.589Z,14.90
2017-12-05T04:25:11.860Z,15.00
2017-12-05T04:27:40.154Z,15.47
2017-12-05T04:30:08.414Z,18.50
2017-12-05T04:32:36.683Z,14.83
2017-12-05T04:35:04.971Z,16.30
2017-12-05T04:37:33.273Z,16.73
2017-12-05T04:40:01.514Z,16.60
2017-12-05T04:42:29.781Z,18.97
2017-12-05T04:44:58.059Z,18.57
2017-12-05T04:47:26.321Z,19.73
2017-12-05T04:49:55.348Z,17.87
2017-12-05T04:52:23.602Z,19.00
2017-12-05T04:54:51.845Z,18.17
2017-12-05T04:57:20.097Z,16.83
2017-12-05T04:59:48.347Z,18.63
2017-12-05T05:02:16.675Z,19.07
2017-12-05T05:04:44.866Z,18.73
2017-12-05T05:07:13.906Z,21.33
2017-12-05T05:09:42.178Z,19.67
2017-12-05T05:12:10.434Z,19.00
2017-12-05T05:14:39.464Z,17.83
2017-12-05T05:17:07.748Z,17.67
2017-12-05T05:19:36.015Z,16.90
2017-12-05T05:22:05.082Z,17.70
2017-12-05T05:24:33.362Z,16.30
2017-12-05T05:27:01.619Z,16.47
2017-12-05T05:29:29.899Z,17.90
2017-12-05T05:31:58.898Z,17.20
2017-12-05T05:34:27.186Z,16.50
2017-12-05T05:36:55.412Z,16.80
2017-12-05T05:39:23.688Z,15.77
2017-12-05T05:41:51.950Z,20.83
2017-12-05T05:44:20.214Z,19.83
2017-12-05T05:46:48.454Z,17.50
2017-12-05T05:49:17.653Z,19.80
2017-12-05T05:51:46.651Z,18.80
2017-12-05T05:54:14.932Z,20.50
2017-12-05T05:56:44.009Z,21.03
2017-12-05T05:59:13.026Z,20.13
2017-12-05T06:01:42.037Z,21.90
2017-12-05T06:04:10.338Z,21.00
2017-12-05T06:06:38.589Z,23.07
2017-12-05T06:09:06.851Z,24.00
2017-12-05T06:11:35.116Z,21.00
2017-12-05T06:14:04.142Z,24.43
2017-12-05T06:16:32.438Z,29.50
2017-12-05T06:19:01.273Z,22.27
2017-12-05T06:21:29.545Z,21.07
2017-12-05T06:23:57.815Z,21.70
2017-12-05T06:26:26.050Z,18.17
2017-12-05T06:28:54.322Z,21.93
2017-12-05T06:31:22.611Z,22.03
2017-12-05T06:33:50.884Z,20.10
2017-12-05T06:36:19.125Z,24.77
2017-12-05T06:38:49.140Z,22.90
2017-12-05T06:41:17.392Z,22.10
2017-12-05T06:43:45.702Z,18.00
2017-12-05T06:46:14.782Z,20.30
2017-12-05T06:48:43.081Z,19.83
2017-12-05T06:51:13.023Z,15.43
2017-12-05T06:53:41.330Z,17.70
2017-12-05T06:56:09.623Z,18.30
2017-12-05T06:58:37.901Z,17.10
2017-12-05T07:01:06.945Z,18.80
2017-12-05T07:03:35.232Z,20.27
2017-12-05T07:06:03.504Z,17.63
2017-12-05T07:08:31.800Z,19.27
2017-12-05T07:11:00.603Z,16.53
2017-12-05T07:13:28.884Z,17.50
2017-12-05T07:15:57.185Z,17.23
2017-12-05T07:18:26.228Z,18.60
2017-12-05T07:20:55.125Z,14.47
2017-12-05T07:23:23.430Z,17.30
2017-12-05T07:25:52.503Z,15.53
2017-12-05T07:28:20.827Z,15.50
2017-12-05T07:30:49.861Z,14.70
2017-12-05T07:33:18.167Z,16.40
2017-12-05T07:35:46.466Z,14.73
2017-12-05T07:38:14.740Z,14.43
2017-12-05T07:40:43.886Z,12.83
2017-12-05T07:43:12.190Z,15.63
2017-12-05T07:45:40.456Z,14.97
2017-12-05T07:48:08.695Z,16.73
2017-12-05T07:50:37.002Z,15.00
2017-12-05T07:53:05.277Z,15.97
2017-12-05T07:55:33.519Z,12.80
2017-12-05T07:58:02.531Z,14.70
2017-12-05T08:00:30.913Z,16.07
2017-12-05T08:02:59.243Z,15.97
2017-12-05T08:05:27.567Z,15.63
2017-12-05T08:07:55.946Z,14.77
2017-12-05T08:10:24.203Z,14.30
2017-12-05T08:12:52.578Z,15.13
2017-12-05T08:15:20.846Z,16.67
2017-12-05T08:17:49.901Z,15.13
2017-12-05T08:20:18.181Z,15.70
2017-12-05T08:22:46.612Z,15.50
2017-12-05T08:25:14.905Z,15.27
2017-12-05T08:27:43.222Z,15.47
2017-12-05T08:30:11.569Z,16.20
2017-12-05T08:32:39.915Z,16.40
2017-12-05T08:35:08.244Z,13.87
2017-12-05T08:37:37.485Z,15.93
2017-12-05T08:40:05.843Z,14.03
2017-12-05T08:42:34.147Z,13.20
2017-12-05T08:45:02.560Z,14.30
2017-12-05T08:47:30.822Z,15.17
2017-12-05T08:49:59.282Z,34.57
2017-12-05T08:52:27.520Z,15.30
2017-12-05T08:54:55.786Z,15.47
2017-12-05T08:57:24.835Z,17.50
2017-12-05T08:59:53.116Z,17.20
2017-12-05T09:02:21.403Z,16.53
2017-12-05T09:04:49.669Z,14.10
2017-12-05T09:07:17.970Z,15.27
2017-12-05T09:09:46.247Z,16.33
2017-12-05T09:12:14.587Z,16.23
2017-12-05T09:14:42.919Z,14.23
2017-12-05T09:17:11.245Z,15.83
2017-12-05T09:19:39.528Z,16.17
2017-12-05T09:22:08.606Z,15.30
2017-12-05T09:24:36.896Z,14.90
2017-12-05T09:27:05.173Z,14.83
2017-12-05T09:29:33.439Z,16.63
2017-12-05T09:32:01.740Z,13.70
2017-12-05T09:34:30.586Z,17.40
2017-12-05T09:36:58.875Z,16.73
2017-12-05T09:39:27.170Z,15.37
2017-12-05T09:41:55.483Z,16.50
2017-12-05T09:44:23.755Z,18.40
2017-12-05T09:46:52.022Z,14.87
2017-12-05T09:49:20.285Z,15.80
2017-12-05T09:51:48.553Z,15.47
2017-12-05T09:54:16.834Z,18.43
2017-12-05T09:56:46.012Z,17.33
2017-12-05T09:59:14.283Z,18.30
2017-12-05T10:01:42.538Z,17.10
2017-12-05T10:04:11.664Z,18.50
2017-12-05T10:06:39.954Z,19.33
2017-12-05T10:09:08.234Z,20.60
2017-12-05T10:11:36.562Z,18.43
2017-12-05T10:14:05.599Z,19.30
2017-12-05T10:16:33.902Z,19.13
2017-12-05T10:19:04.456Z,19.90
2017-12-05T10:21:33.521Z,20.03
2017-12-05T10:24:02.960Z,20.93
2017-12-05T10:26:31.255Z,22.67
2017-12-05T10:29:00.370Z,22.97
2017-12-05T10:31:28.618Z,20.23
2017-12-05T10:33:57.691Z,21.00
2017-12-05T10:36:26.741Z,25.20
2017-12-05T10:38:55.038Z,24.00
2017-12-05T10:41:23.394Z,24.03
2017-12-05T10:43:51.670Z,23.80
2017-12-05T10:46:19.991Z,21.77
2017-12-05T10:48:48.256Z,24.47
2017-12-05T10:51:16.542Z,23.50
2017-12-05T10:53:44.831Z,22.30
2017-12-05T10:56:13.941Z,23.93
2017-12-05T10:58:42.234Z,21.97
2017-12-05T11:01:12.043Z,24.33
2017-12-05T11:03:41.131Z,25.87
2017-12-05T11:06:10.640Z,25.10
2017-12-05T11:08:38.915Z,26.87
2017-12-05T11:11:07.214Z,25.00
2017-12-05T11:13:36.270Z,27.00
2017-12-05T11:16:04.586Z,24.50
2017-12-05T11:18:32.858Z,22.30
2017-12-05T11:21:01.912Z,24.80
2017-12-05T11:23:30.184Z,26.10
2017-12-05T11:25:58.475Z,25.50
2017-12-05T11:28:26.770Z,26.53
2017-12-05T11:30:55.864Z,29.83
2017-12-05T11:33:24.174Z,26.50
2017-12-05T11:35:53.259Z,29.33
2017-12-05T11:38:21.593Z,24.57
2017-12-05T11:40:49.835Z,27.77
2017-12-05T11:43:18.840Z,26.30
2017-12-05T11:45:47.123Z,23.40
2017-12-05T11:48:15.462Z,25.50
2017-12-05T11:50:43.706Z,25.07
2017-12-05T11:53:11.996Z,22.77
2017-12-05T11:55:40.241Z,25.83
2017-12-05T11:58:08.511Z,26.03
2017-12-05T12:00:36.805Z,23.83
2017-12-05T12:03:05.102Z,22.67
2017-12-05T12:05:33.424Z,22.73
2017-12-05T12:08:01.721Z,18.97
2017-12-05T12:10:30.843Z,24.57
2017-12-05T12:12:59.215Z,22.30
2017-12-05T12:15:27.631Z,22.90
2017-12-05T12:17:56.682Z,20.90
2017-12-05T12:20:24.974Z,22.27
2017-12-05T12:22:53.336Z,23.33
2017-12-05T12:25:21.584Z,21.93
2017-12-05T12:27:49.929Z,19.97
2017-12-05T12:30:19.572Z,18.47
2017-12-05T12:32:49.516Z,18.80
2017-12-05T12:35:18.591Z,24.70
2017-12-05T12:37:48.557Z,19.60
2017-12-05T12:40:23.783Z,22.90
2017-12-05T12:42:52.818Z,21.57
2017-12-05T12:45:21.105Z,21.53
2017-12-05T12:47:50.135Z,22.03
2017-12-05T12:50:18.431Z,21.37
2017-12-05T12:52:46.780Z,21.00
2017-12-05T12:55:16.673Z,23.80
2017-12-05T12:57:45.761Z,21.30
2017-12-05T13:00:14.053Z,20.30
2017-12-05T13:02:43.131Z,22.57
2017-12-05T13:05:11.391Z,21.20
2017-12-05T13:07:40.351Z,21.07
2017-12-05T13:10:09.204Z,20.53
2017-12-05T13:12:38.262Z,22.80
2017-12-05T13:15:06.526Z,22.00
2017-12-05T13:17:34.797Z,23.40
2017-12-05T13:20:03.296Z,20.83
2017-12-05T13:22:31.675Z,23.33
2017-12-05T13:24:59.977Z,22.00
2017-12-05T13:27:28.290Z,20.30
2017-12-05T13:29:56.551Z,21.50
2017-12-05T13:32:25.600Z,21.83
2017-12-05T13:34:53.871Z,21.00
2017-12-05T13:37:22.081Z,18.77
2017-12-05T13:39:50.401Z,20.70
2017-12-05T13:42:18.691Z,22.77
2017-12-05T13:44:46.991Z,22.60
2017-12-05T13:47:15.239Z,20.03
2017-12-05T13:49:43.512Z,21.53
2017-12-05T13:52:11.808Z,19.87
2017-12-05T13:54:40.067Z,21.53
2017-12-05T13:57:08.318Z,23.43
2017-12-05T13:59:37.354Z,19.87
2017-12-05T14:02:05.674Z,20.40
2017-12-05T14:04:34.674Z,19.70
2017-12-05T14:07:02.962Z,20.30
2017-12-05T14:09:32.182Z,20.70
2017-12-05T14:12:01.249Z,20.57
2017-12-05T14:14:30.375Z,18.47
2017-12-05T14:16:59.416Z,21.43
2017-12-05T14:19:27.746Z,22.57
2017-12-05T14:21:56.921Z,21.03
2017-12-05T14:24:25.195Z,20.20
2017-12-05T14:26:53.711Z,19.87
2017-12-05T14:29:29.853Z,21.20
2017-12-05T14:32:04.959Z,23.40
2017-12-05T14:34:33.273Z,19.67
2017-12-05T14:37:01.904Z,21.10
2017-12-05T14:39:31.055Z,21.27
2017-12-05T14:41:59.296Z,23.00
2017-12-05T14:44:27.604Z,21.87
2017-12-05T14:46:55.906Z,21.90
2017-12-05T14:49:25.103Z,20.40
2017-12-05T14:51:54.139Z,21.40
2017-12-05T14:54:22.454Z,21.07
2017-12-05T14:56:51.520Z,20.30
2017-12-05T14:59:19.822Z,22.40
2017-12-05T15:01:48.142Z,21.37
2017-12-05T15:04:16.446Z,20.80
2017-12-05T15:06:45.026Z,19.97
2017-12-05T15:09:14.616Z,21.83
2017-12-05T15:11:43.656Z,20.63
2017-12-05T15:14:11.965Z,19.80
2017-12-05T15:16:41.061Z,19.97
2017-12-05T15:19:09.366Z,23.37
2017-12-05T15:21:37.640Z,20.77
2017-12-05T15:24:06.668Z,22.17
2017-12-05T15:26:34.992Z,21.77
2017-12-05T15:29:03.292Z,21.77
2017-12-05T15:31:31.583Z,20.10
2017-12-05T15:33:59.844Z,20.80
2017-12-05T15:36:28.642Z,21.23
2017-12-05T15:38:56.988Z,21.17
2017-12-05T15:41:25.239Z,23.70
2017-12-05T15:43:53.514Z,20.77
2017-12-05T15:46:21.785Z,24.30
2017-12-05T15:48:50.785Z,21.43
2017-12-05T15:51:19.038Z,22.60
2017-12-05T15:53:47.352Z,22.70
2017-12-05T15:56:15.647Z,24.80
2017-12-05T15:58:44.750Z,22.03
2017-12-05T16:01:13.047Z,23.80
2017-12-05T16:03:42.037Z,23.27
2017-12-05T16:06:11.938Z,21.57
2017-12-05T16:08:41.668Z,22.60
2017-12-05T16:11:10.288Z,21.03
2017-12-05T16:13:39.178Z,23.27
2017-12-05T16:16:07.483Z,21.07
2017-12-05T16:18:35.791Z,20.33
2017-12-05T16:21:04.830Z,20.70
2017-12-05T16:23:33.909Z,21.63
2017-12-05T16:26:02.225Z,23.03
2017-12-05T16:28:30.484Z,21.43
2017-12-05T16:30:58.820Z,22.03
2017-12-05T16:33:27.197Z,23.73
2017-12-05T16:35:55.518Z,23.30
2017-12-05T16:38:23.787Z,20.93
2017-12-05T16:40:52.040Z,22.07
2017-12-05T16:43:20.449Z,23.17
2017-12-05T16:45:49.495Z,22.40
2017-12-05T16:48:19.222Z,20.50
2017-12-05T16:50:47.667Z,21.60
2017-12-05T16:53:15.921Z,21.07
2017-12-05T16:55:44.196Z,23.10
2017-12-05T16:58:13.274Z,22.50
2017-12-05T17:00:41.607Z,23.60
2017-12-05T17:03:12.306Z,23.10
2017-12-05T17:05:40.671Z,23.67
2017-12-05T17:08:09.685Z,24.70
2017-12-05T17:10:38.842Z,23.87
2017-12-05T17:13:07.239Z,21.80
2017-12-05T17:15:35.686Z,20.70
2017-12-05T17:18:03.946Z,22.67
2017-12-05T17:20:33.394Z,20.40
2017-12-05T17:23:01.801Z,22.43
2017-12-05T17:25:30.392Z,25.67
2017-12-05T17:27:58.758Z,25.47
2017-12-05T17:30:28.101Z,22.00
2017-12-05T17:32:56.511Z,24.03
2017-12-05T17:35:25.066Z,22.03
2017-12-05T17:37:54.331Z,22.47
2017-12-05T17:40:22.628Z,21.37
2017-12-05T17:42:51.005Z,21.80
2017-12-05T17:45:19.810Z,22.17
2017-12-05T17:47:48.894Z,25.40
2017-12-05T17:50:17.233Z,21.83
2017-12-05T17:52:45.560Z,24.70
2017-12-05T17:55:13.779Z,23.30
2017-12-05T17:57:42.139Z,22.03
2017-12-05T18:00:11.198Z,21.60
2017-12-05T18:02:39.529Z,22.43
2017-12-05T18:05:08.597Z,21.17
2017-12-05T18:07:37.038Z,20.60
2017-12-05T18:10:06.026Z,21.97
2017-12-05T18:12:34.426Z,20.60
2017-12-05T18:15:03.549Z,24.90
2017-12-05T18:17:32.618Z,21.80
2017-12-05T18:20:01.395Z,21.27
2017-12-05T18:22:30.583Z,21.43
2017-12-05T18:24:58.891Z,21.63
2017-12-05T18:27:27.521Z,19.80
2017-12-05T18:29:55.858Z,20.90
2017-12-05T18:32:24.159Z,21.47
2017-12-05T18:34:53.327Z,21.00
2017-12-05T18:37:23.318Z,20.80
2017-12-05T18:39:51.958Z,19.93
2017-12-05T18:42:20.285Z,22.47
2017-12-05T18:44:48.625Z,22.33
2017-12-05T18:47:16.993Z,21.67
2017-12-05T18:49:46.841Z,22.67
2017-12-05T18:52:15.277Z,22.40
2017-12-05T18:54:43.719Z,22.37
2017-12-05T18:57:12.558Z,22.60
2017-12-05T18:59:41.702Z,21.87
2017-12-05T19:02:11.372Z,22.17
2017-12-05T19:04:40.798Z,22.13
2017-12-05T19:07:09.916Z,24.03
2017-12-05T19:09:39.539Z,22.27
2017-12-05T19:12:08.985Z,22.47
2017-12-05T19:14:37.500Z,26.47
2017-12-05T19:17:05.848Z,24.90
2017-12-05T19:19:34.545Z,23.10
2017-12-05T19:22:03.733Z,24.17
2017-12-05T19:24:32.149Z,23.37
2017-12-05T19:27:00.425Z,23.53
2017-12-05T19:29:28.855Z,23.60
2017-12-05T19:31:57.657Z,20.87
2017-12-05T19:34:26.014Z,22.60
2017-12-05T19:36:54.414Z,21.73
2017-12-05T19:39:23.512Z,22.40
2017-12-05T19:41:53.147Z,20.40
2017-12-05T19:44:23.806Z,21.40
2017-12-05T19:46:52.334Z,21.63
2017-12-05T19:49:20.928Z,21.43
2017-12-05T19:51:50.135Z,19.00
2017-12-05T19:54:18.800Z,20.50
2017-12-05T19:56:47.462Z,20.90
2017-12-05T19:59:16.453Z,22.17
2017-12-05T20:01:44.982Z,20.50
2017-12-05T20:04:14.557Z,19.17
2017-12-05T20:06:42.952Z,18.90
2017-12-05T20:09:12.843Z,19.40
2017-12-05T20:11:41.481Z,20.77
2017-12-05T20:14:11.078Z,20.07
2017-12-05T20:16:42.334Z,19.73
2017-12-05T20:19:11.026Z,18.90
2017-12-05T20:21:39.702Z,20.73
2017-12-05T20:24:08.593Z,19.87
2017-12-05T20:26:37.330Z,19.43
2017-12-05T20:29:06.802Z,19.20
2017-12-05T20:31:35.275Z,20.63
2017-12-05T20:34:04.566Z,20.53
2017-12-05T20:36:33.030Z,17.90
2017-12-05T20:39:02.524Z,19.47
2017-12-05T20:41:32.338Z,19.80
2017-12-05T20:44:00.775Z,19.00
2017-12-05T20:46:29.311Z,19.47
2017-12-05T20:48:57.427Z,18.63
2017-12-05T20:51:25.528Z,18.93
2017-12-05T20:53:53.593Z,19.07
2017-12-05T20:56:21.683Z,18.07
2017-12-05T20:58:50.510Z,17.93
2017-12-05T21:01:18.649Z,18.43
2017-12-05T21:03:47.697Z,19.13
2017-12-05T21:06:15.845Z,18.73
2017-12-05T21:08:43.942Z,17.70
2017-12-05T21:11:12.320Z,17.90
2017-12-05T21:13:40.603Z,19.10
2017-12-05T21:16:08.840Z,18.30
2017-12-05T21:18:36.894Z,20.20
2017-12-05T21:21:05.931Z,17.80
2017-12-05T21:23:34.052Z,20.37
2017-12-05T21:26:02.290Z,19.97
2017-12-05T21:28:30.814Z,20.53
2017-12-05T21:30:58.953Z,18.63
2017-12-05T21:33:27.112Z,17.80
2017-12-05T21:35:55.135Z,18.10
2017-12-05T21:38:23.145Z,17.90
2017-12-05T21:40:51.215Z,20.57
2017-12-05T21:43:19.617Z,17.27
2017-12-05T21:45:47.753Z,17.90
2017-12-05T21:48:15.826Z,19.97
2017-12-05T21:50:44.043Z,19.80
2017-12-05T21:53:12.147Z,19.73
2017-12-05T21:55:40.707Z,17.07
2017-12-05T21:58:08.745Z,16.80
2017-12-05T22:00:36.872Z,18.67
2017-12-05T22:03:05.709Z,20.97
2017-12-05T22:05:34.580Z,20.43
2017-12-05T22:08:02.650Z,17.10
2017-12-05T22:10:31.006Z,16.40
2017-12-05T22:13:00.005Z,20.27
2017-12-05T22:15:28.300Z,16.97
2017-12-05T22:17:56.930Z,16.73
2017-12-05T22:20:25.294Z,18.30
2017-12-05T22:22:53.757Z,17.63
2017-12-05T22:25:22.027Z,19.67
2017-12-05T22:27:50.387Z,18.10
2017-12-05T22:30:19.503Z,17.67
2017-12-05T22:32:47.767Z,17.63
2017-12-05T22:35:16.062Z,16.20
2017-12-05T22:37:44.339Z,17.30
2017-12-05T22:40:12.646Z,17.50
2017-12-05T22:42:40.886Z,17.03
2017-12-05T22:45:09.164Z,17.87
2017-12-05T22:47:37.450Z,19.10
2017-12-05T22:50:05.703Z,16.93
2017-12-05T22:52:33.965Z,17.50
2017-12-05T22:55:02.781Z,18.47
2017-12-05T22:57:31.040Z,17.60
2017-12-05T22:59:59.758Z,16.90
2017-12-05T23:02:28.054Z,16.70
2017-12-05T23:04:56.297Z,16.70
2017-12-05T23:07:24.576Z,16.20
2017-12-05T23:09:52.816Z,17.27
2017-12-05T23:12:21.868Z,17.13
2017-12-05T23:14:50.146Z,16.50
2017-12-05T23:17:18.384Z,17.40
2017-12-05T23:19:47.407Z,17.80
2017-12-05T23:22:15.678Z,15.90
2017-12-05T23:24:44.383Z,18.10
2017-12-05T23:27:12.632Z,16.73
2017-12-05T23:29:40.936Z,17.07
2017-12-05T23:32:09.205Z,16.70
2017-12-05T23:34:37.453Z,18.80
2017-12-05T23:37:06.471Z,17.10
2017-12-05T23:39:34.794Z,16.73
2017-12-05T23:42:03.052Z,17.13
2017-12-05T23:44:32.243Z,16.30
2017-12-05T23:47:00.483Z,16.00
2017-12-05T23:49:28.742Z,16.23
2017-12-05T23:51:57.776Z,17.33
2017-12-05T23:54:26.044Z,19.00
2017-12-05T23:56:54.286Z,18.13
2017-12-05T23:59:23.321Z,16.50
